KMHR/MHR METAR and TAF weather

Enter ICAO airport designator
Station Type Date Time Source
KMHR METAR 2021/04/17 01:49 UTC NOAA

KMHR 170149Z 22013KT 10SM SKC 24/07 A2987


Station Type Date Time Source
KMHR Decoded METAR 2021/04/17 01:49 UTC NOAA

Sacramento, Sacramento Mather Airport, CA, United States (KMHR) 38-33N 121-18W
Apr 16, 2021 - 09:49 PM EDT / 2021.04.17 0149 UTC
Wind: from the SW (220 degrees) at 15 MPH (13 KT):0
Visibility: 10 mile(s):0
Sky conditions: clear
Temperature: 75 F (24 C)
Dew Point: 44 F (7 C)
Relative Humidity: 33%
Pressure (altimeter): 29.87 in. Hg (1011 hPa)
ob: KMHR 170149Z 22013KT 10SM SKC 24/07 A2987
cycle: 2

Station Type Date Time Source
KMHR TAF 2021/04/16 18:22 UTC NOAA

TAF KMHR 161720Z 1618/1718 25006KT P6SM SKC
FM170500 14006KT P6SM SKC

Example: see airport list